sensor_id;sensor_type;location;lat;lon;timestamp;P1;durP1;ratioP1;P2;durP2;ratioP2
2053;SDS011;1032;52.542;13.440;2022-08-19T00:02:18;16.10;;;14.87;;
2053;SDS011;1032;52.542;13.440;2022-08-19T00:04:45;15.10;;;13.80;;
2053;SDS011;1032;52.542;13.440;2022-08-19T00:07:13;14.40;;;13.30;;
2053;SDS011;1032;52.542;13.440;2022-08-19T00:09:40;14.23;;;13.23;;
2053;SDS011;1032;52.542;13.440;2022-08-19T00:12:07;15.63;;;14.43;;
2053;SDS011;1032;52.542;13.440;2022-08-19T00:14:33;15.57;;;14.33;;
2053;SDS011;1032;52.542;13.440;2022-08-19T00:17:00;15.37;;;14.00;;
2053;SDS011;1032;52.542;13.440;2022-08-19T00:19:29;15.67;;;14.30;;
2053;SDS011;1032;52.542;13.440;2022-08-19T00:21:56;16.33;;;14.93;;
2053;SDS011;1032;52.542;13.440;2022-08-19T00:24:23;15.97;;;14.67;;
2053;SDS011;1032;52.542;13.440;2022-08-19T00:26:51;15.23;;;13.90;;
2053;SDS011;1032;52.542;13.440;2022-08-19T00:29:18;17.20;;;15.80;;
2053;SDS011;1032;52.542;13.440;2022-08-19T00:31:47;17.60;;;16.00;;
2053;SDS011;1032;52.542;13.440;2022-08-19T00:34:15;18.57;;;16.97;;
2053;SDS011;1032;52.542;13.440;2022-08-19T00:36:43;19.57;;;17.47;;
2053;SDS011;1032;52.542;13.440;2022-08-19T00:39:10;17.60;;;16.23;;
2053;SDS011;1032;52.542;13.440;2022-08-19T00:41:37;18.93;;;17.33;;
2053;SDS011;1032;52.542;13.440;2022-08-19T00:44:06;16.77;;;15.37;;
2053;SDS011;1032;52.542;13.440;2022-08-19T00:46:35;17.63;;;16.33;;
2053;SDS011;1032;52.542;13.440;2022-08-19T00:49:06;17.37;;;16.03;;
2053;SDS011;1032;52.542;13.440;2022-08-19T00:51:40;15.93;;;14.67;;
2053;SDS011;1032;52.542;13.440;2022-08-19T00:54:10;17.07;;;15.47;;
2053;SDS011;1032;52.542;13.440;2022-08-19T00:56:37;16.60;;;15.20;;
2053;SDS011;1032;52.542;13.440;2022-08-19T00:59:05;15.67;;;14.47;;
2053;SDS011;1032;52.542;13.440;2022-08-19T01:01:33;18.13;;;16.63;;
2053;SDS011;1032;52.542;13.440;2022-08-19T01:04:00;18.70;;;17.03;;
2053;SDS011;1032;52.542;13.440;2022-08-19T01:06:27;18.03;;;16.30;;
2053;SDS011;1032;52.542;13.440;2022-08-19T01:08:56;16.77;;;15.40;;
2053;SDS011;1032;52.542;13.440;2022-08-19T01:11:24;16.20;;;14.80;;
2053;SDS011;1032;52.542;13.440;2022-08-19T01:13:51;16.93;;;15.63;;
2053;SDS011;1032;52.542;13.440;2022-08-19T01:19:07;15.60;;;14.30;;
2053;SDS011;1032;52.542;13.440;2022-08-19T01:21:44;16.20;;;14.03;;
2053;SDS011;1032;52.542;13.440;2022-08-19T01:24:18;14.83;;;13.57;;
2053;SDS011;1032;52.542;13.440;2022-08-19T01:26:45;16.77;;;15.37;;
2053;SDS011;1032;52.542;13.440;2022-08-19T01:29:12;17.23;;;15.73;;
2053;SDS011;1032;52.542;13.440;2022-08-19T01:31:39;16.33;;;15.03;;
2053;SDS011;1032;52.542;13.440;2022-08-19T01:34:06;16.10;;;14.90;;
2053;SDS011;1032;52.542;13.440;2022-08-19T01:36:34;16.20;;;14.70;;
2053;SDS011;1032;52.542;13.440;2022-08-19T01:39:04;17.83;;;16.13;;
2053;SDS011;1032;52.542;13.440;2022-08-19T01:41:34;16.97;;;15.37;;
2053;SDS011;1032;52.542;13.440;2022-08-19T01:46:50;15.47;;;14.27;;
2053;SDS011;1032;52.542;13.440;2022-08-19T01:49:19;18.83;;;17.03;;
2053;SDS011;1032;52.542;13.440;2022-08-19T01:51:47;17.77;;;16.17;;
2053;SDS011;1032;52.542;13.440;2022-08-19T01:54:14;18.30;;;16.70;;
2053;SDS011;1032;52.542;13.440;2022-08-19T01:56:43;17.67;;;15.93;;
2053;SDS011;1032;52.542;13.440;2022-08-19T01:59:11;21.30;;;19.30;;
2053;SDS011;1032;52.542;13.440;2022-08-19T02:01:39;18.53;;;16.43;;
2053;SDS011;1032;52.542;13.440;2022-08-19T02:04:06;19.57;;;17.77;;
2053;SDS011;1032;52.542;13.440;2022-08-19T02:06:33;16.37;;;14.87;;
2053;SDS011;1032;52.542;13.440;2022-08-19T02:09:00;19.10;;;17.40;;
2053;SDS011;1032;52.542;13.440;2022-08-19T02:11:29;18.47;;;16.90;;
2053;SDS011;1032;52.542;13.440;2022-08-19T02:13:59;18.03;;;16.40;;
2053;SDS011;1032;52.542;13.440;2022-08-19T02:16:27;19.77;;;18.07;;
2053;SDS011;1032;52.542;13.440;2022-08-19T02:18:55;20.27;;;18.47;;
2053;SDS011;1032;52.542;13.440;2022-08-19T02:21:23;19.03;;;17.20;;
2053;SDS011;1032;52.542;13.440;2022-08-19T02:23:51;19.10;;;17.60;;
2053;SDS011;1032;52.542;13.440;2022-08-19T02:26:18;18.80;;;17.20;;
2053;SDS011;1032;52.542;13.440;2022-08-19T02:28:45;18.80;;;17.20;;
2053;SDS011;1032;52.542;13.440;2022-08-19T02:31:15;19.40;;;17.70;;
2053;SDS011;1032;52.542;13.440;2022-08-19T02:33:47;18.40;;;16.90;;
2053;SDS011;1032;52.542;13.440;2022-08-19T02:36:16;16.50;;;15.13;;
2053;SDS011;1032;52.542;13.440;2022-08-19T02:38:43;16.63;;;15.33;;
2053;SDS011;1032;52.542;13.440;2022-08-19T02:41:11;16.47;;;15.10;;
2053;SDS011;1032;52.542;13.440;2022-08-19T02:43:40;17.30;;;15.70;;
2053;SDS011;1032;52.542;13.440;2022-08-19T02:46:16;15.97;;;14.67;;
2053;SDS011;1032;52.542;13.440;2022-08-19T02:48:46;14.13;;;12.93;;
2053;SDS011;1032;52.542;13.440;2022-08-19T02:51:15;14.47;;;13.20;;
2053;SDS011;1032;52.542;13.440;2022-08-19T02:53:43;15.47;;;13.90;;
2053;SDS011;1032;52.542;13.440;2022-08-19T02:56:10;15.37;;;14.13;;
2053;SDS011;1032;52.542;13.440;2022-08-19T02:58:36;17.00;;;15.60;;
2053;SDS011;1032;52.542;13.440;2022-08-19T03:01:03;16.73;;;15.23;;
2053;SDS011;1032;52.542;13.440;2022-08-19T03:03:32;15.80;;;14.50;;
2053;SDS011;1032;52.542;13.440;2022-08-19T03:06:03;15.93;;;14.73;;
2053;SDS011;1032;52.542;13.440;2022-08-19T03:08:31;16.30;;;15.00;;
2053;SDS011;1032;52.542;13.440;2022-08-19T03:10:57;15.57;;;14.20;;
2053;SDS011;1032;52.542;13.440;2022-08-19T03:13:24;16.57;;;15.27;;
2053;SDS011;1032;52.542;13.440;2022-08-19T03:15:51;16.07;;;14.53;;
2053;SDS011;1032;52.542;13.440;2022-08-19T03:18:17;15.60;;;14.23;;
2053;SDS011;1032;52.542;13.440;2022-08-19T03:20:46;15.50;;;14.20;;
2053;SDS011;1032;52.542;13.440;2022-08-19T03:23:15;16.73;;;15.43;;
2053;SDS011;1032;52.542;13.440;2022-08-19T03:25:43;15.27;;;14.07;;
2053;SDS011;1032;52.542;13.440;2022-08-19T03:28:12;14.40;;;13.20;;
2053;SDS011;1032;52.542;13.440;2022-08-19T03:30:41;15.30;;;14.07;;
2053;SDS011;1032;52.542;13.440;2022-08-19T03:33:21;17.23;;;15.73;;
2053;SDS011;1032;52.542;13.440;2022-08-19T03:35:59;16.20;;;14.80;;
2053;SDS011;1032;52.542;13.440;2022-08-19T03:38:27;16.00;;;14.57;;
2053;SDS011;1032;52.542;13.440;2022-08-19T03:40:54;17.33;;;15.93;;
2053;SDS011;1032;52.542;13.440;2022-08-19T03:43:20;16.60;;;15.20;;
2053;SDS011;1032;52.542;13.440;2022-08-19T03:45:47;16.17;;;14.63;;
2053;SDS011;1032;52.542;13.440;2022-08-19T03:48:14;16.03;;;14.83;;
2053;SDS011;1032;52.542;13.440;2022-08-19T03:50:41;15.20;;;14.00;;
2053;SDS011;1032;52.542;13.440;2022-08-19T03:53:09;15.87;;;14.57;;
2053;SDS011;1032;52.542;13.440;2022-08-19T03:55:38;15.90;;;14.60;;
2053;SDS011;1032;52.542;13.440;2022-08-19T03:58:06;16.90;;;15.60;;
2053;SDS011;1032;52.542;13.440;2022-08-19T04:00:32;16.47;;;15.17;;
2053;SDS011;1032;52.542;13.440;2022-08-19T04:02:59;15.77;;;14.60;;
2053;SDS011;1032;52.542;13.440;2022-08-19T04:05:26;17.07;;;15.53;;
2053;SDS011;1032;52.542;13.440;2022-08-19T04:07:54;14.87;;;13.73;;
2053;SDS011;1032;52.542;13.440;2022-08-19T04:10:25;15.30;;;13.90;;
2053;SDS011;1032;52.542;13.440;2022-08-19T04:12:51;15.10;;;13.80;;
2053;SDS011;1032;52.542;13.440;2022-08-19T04:15:18;15.87;;;14.53;;
2053;SDS011;1032;52.542;13.440;2022-08-19T04:17:45;15.00;;;13.90;;
2053;SDS011;1032;52.542;13.440;2022-08-19T04:20:11;15.37;;;14.20;;
2053;SDS011;1032;52.542;13.440;2022-08-19T04:22:38;16.50;;;15.10;;
2053;SDS011;1032;52.542;13.440;2022-08-19T04:25:05;16.13;;;14.73;;
2053;SDS011;1032;52.542;13.440;2022-08-19T04:27:33;15.03;;;13.43;;
2053;SDS011;1032;52.542;13.440;2022-08-19T04:30:00;16.83;;;15.47;;
2053;SDS011;1032;52.542;13.440;2022-08-19T04:32:26;16.30;;;15.00;;
2053;SDS011;1032;52.542;13.440;2022-08-19T04:34:53;16.73;;;15.40;;
2053;SDS011;1032;52.542;13.440;2022-08-19T04:37:24;17.30;;;15.90;;
2053;SDS011;1032;52.542;13.440;2022-08-19T04:39:51;18.07;;;16.40;;
2053;SDS011;1032;52.542;13.440;2022-08-19T04:42:37;17.67;;;16.27;;
2053;SDS011;1032;52.542;13.440;2022-08-19T04:45:08;16.17;;;14.97;;
2053;SDS011;1032;52.542;13.440;2022-08-19T04:47:36;17.33;;;16.03;;
2053;SDS011;1032;52.542;13.440;2022-08-19T04:50:04;16.00;;;14.40;;
2053;SDS011;1032;52.542;13.440;2022-08-19T04:52:32;17.17;;;15.87;;
2053;SDS011;1032;52.542;13.440;2022-08-19T04:54:59;17.73;;;16.40;;
2053;SDS011;1032;52.542;13.440;2022-08-19T04:57:25;17.87;;;16.27;;
2053;SDS011;1032;52.542;13.440;2022-08-19T04:59:54;17.77;;;16.37;;
2053;SDS011;1032;52.542;13.440;2022-08-19T05:02:21;16.10;;;14.70;;
2053;SDS011;1032;52.542;13.440;2022-08-19T05:04:50;17.70;;;16.10;;
2053;SDS011;1032;52.542;13.440;2022-08-19T05:07:17;17.73;;;15.83;;
2053;SDS011;1032;52.542;13.440;2022-08-19T05:09:43;17.10;;;15.70;;
2053;SDS011;1032;52.542;13.440;2022-08-19T05:12:10;16.97;;;15.67;;
2053;SDS011;1032;52.542;13.440;2022-08-19T05:14:37;18.50;;;17.07;;
2053;SDS011;1032;52.542;13.440;2022-08-19T05:17:05;16.87;;;15.47;;
2053;SDS011;1032;52.542;13.440;2022-08-19T05:19:31;16.90;;;15.43;;
2053;SDS011;1032;52.542;13.440;2022-08-19T05:22:15;16.73;;;15.30;;
2053;SDS011;1032;52.542;13.440;2022-08-19T05:25:01;15.80;;;14.53;;
2053;SDS011;1032;52.542;13.440;2022-08-19T05:27:30;17.43;;;16.03;;
2053;SDS011;1032;52.542;13.440;2022-08-19T05:29:57;16.53;;;15.13;;
2053;SDS011;1032;52.542;13.440;2022-08-19T05:32:25;15.50;;;14.33;;
2053;SDS011;1032;52.542;13.440;2022-08-19T05:34:52;15.90;;;14.53;;
2053;SDS011;1032;52.542;13.440;2022-08-19T05:37:18;15.43;;;14.03;;
2053;SDS011;1032;52.542;13.440;2022-08-19T05:39:45;16.73;;;15.27;;
2053;SDS011;1032;52.542;13.440;2022-08-19T05:42:12;15.67;;;14.47;;
2053;SDS011;1032;52.542;13.440;2022-08-19T05:44:40;17.40;;;15.63;;
2053;SDS011;1032;52.542;13.440;2022-08-19T05:47:09;15.93;;;14.73;;
2053;SDS011;1032;52.542;13.440;2022-08-19T05:49:38;14.60;;;13.37;;
2053;SDS011;1032;52.542;13.440;2022-08-19T05:52:05;16.43;;;14.10;;
2053;SDS011;1032;52.542;13.440;2022-08-19T05:54:34;16.97;;;15.57;;
2053;SDS011;1032;52.542;13.440;2022-08-19T05:57:03;15.63;;;14.23;;
2053;SDS011;1032;52.542;13.440;2022-08-19T05:59:29;16.57;;;15.17;;
2053;SDS011;1032;52.542;13.440;2022-08-19T06:01:56;16.70;;;15.30;;
2053;SDS011;1032;52.542;13.440;2022-08-19T06:04:23;15.50;;;14.30;;
2053;SDS011;1032;52.542;13.440;2022-08-19T06:06:52;15.53;;;14.23;;
2053;SDS011;1032;52.542;13.440;2022-08-19T06:09:19;17.93;;;16.23;;
2053;SDS011;1032;52.542;13.440;2022-08-19T06:11:49;16.47;;;15.07;;
2053;SDS011;1032;52.542;13.440;2022-08-19T06:14:19;17.80;;;16.10;;
2053;SDS011;1032;52.542;13.440;2022-08-19T06:16:48;15.73;;;14.30;;
2053;SDS011;1032;52.542;13.440;2022-08-19T06:19:17;16.80;;;15.40;;
2053;SDS011;1032;52.542;13.440;2022-08-19T06:21:46;16.57;;;15.37;;
2053;SDS011;1032;52.542;13.440;2022-08-19T06:24:17;18.20;;;16.67;;
2053;SDS011;1032;52.542;13.440;2022-08-19T06:26:45;18.80;;;16.90;;
2053;SDS011;1032;52.542;13.440;2022-08-19T06:29:14;17.17;;;15.60;;
2053;SDS011;1032;52.542;13.440;2022-08-19T06:31:43;18.50;;;17.00;;
2053;SDS011;1032;52.542;13.440;2022-08-19T06:34:12;18.57;;;17.07;;
2053;SDS011;1032;52.542;13.440;2022-08-19T06:36:40;18.57;;;17.00;;
2053;SDS011;1032;52.542;13.440;2022-08-19T06:39:10;19.30;;;17.60;;
2053;SDS011;1032;52.542;13.440;2022-08-19T06:41:40;17.30;;;15.80;;
2053;SDS011;1032;52.542;13.440;2022-08-19T06:44:15;18.00;;;16.53;;
2053;SDS011;1032;52.542;13.440;2022-08-19T06:46:42;17.43;;;16.13;;
2053;SDS011;1032;52.542;13.440;2022-08-19T06:49:09;17.03;;;15.73;;
2053;SDS011;1032;52.542;13.440;2022-08-19T06:51:39;19.90;;;17.83;;
2053;SDS011;1032;52.542;13.440;2022-08-19T06:54:06;18.33;;;16.73;;
2053;SDS011;1032;52.542;13.440;2022-08-19T06:56:33;18.13;;;16.63;;
2053;SDS011;1032;52.542;13.440;2022-08-19T06:59:02;17.60;;;16.27;;
2053;SDS011;1032;52.542;13.440;2022-08-19T07:01:30;18.60;;;17.10;;
2053;SDS011;1032;52.542;13.440;2022-08-19T07:04:02;18.40;;;16.63;;
2053;SDS011;1032;52.542;13.440;2022-08-19T07:06:29;18.53;;;17.03;;
2053;SDS011;1032;52.542;13.440;2022-08-19T07:08:56;17.40;;;15.83;;
2053;SDS011;1032;52.542;13.440;2022-08-19T07:11:24;20.20;;;18.43;;
2053;SDS011;1032;52.542;13.440;2022-08-19T07:13:51;20.97;;;19.17;;
2053;SDS011;1032;52.542;13.440;2022-08-19T07:16:19;18.77;;;17.27;;
2053;SDS011;1032;52.542;13.440;2022-08-19T07:18:47;18.20;;;16.60;;
2053;SDS011;1032;52.542;13.440;2022-08-19T07:21:15;19.37;;;17.77;;
2053;SDS011;1032;52.542;13.440;2022-08-19T07:23:43;20.83;;;19.10;;
2053;SDS011;1032;52.542;13.440;2022-08-19T07:26:12;18.43;;;16.93;;
2053;SDS011;1032;52.542;13.440;2022-08-19T07:28:40;19.47;;;17.97;;
2053;SDS011;1032;52.542;13.440;2022-08-19T07:31:09;20.33;;;17.50;;
2053;SDS011;1032;52.542;13.440;2022-08-19T07:33:37;18.97;;;17.50;;
2053;SDS011;1032;52.542;13.440;2022-08-19T07:36:05;21.20;;;19.33;;
2053;SDS011;1032;52.542;13.440;2022-08-19T07:38:36;20.90;;;19.17;;
2053;SDS011;1032;52.542;13.440;2022-08-19T07:41:04;19.13;;;17.43;;
2053;SDS011;1032;52.542;13.440;2022-08-19T07:43:31;20.70;;;19.00;;
2053;SDS011;1032;52.542;13.440;2022-08-19T07:45:58;18.87;;;17.43;;
2053;SDS011;1032;52.542;13.440;2022-08-19T07:48:25;21.27;;;19.50;;
2053;SDS011;1032;52.542;13.440;2022-08-19T07:50:56;21.50;;;19.60;;
2053;SDS011;1032;52.542;13.440;2022-08-19T07:53:26;19.93;;;18.43;;
2053;SDS011;1032;52.542;13.440;2022-08-19T07:55:54;20.23;;;18.47;;
2053;SDS011;1032;52.542;13.440;2022-08-19T07:58:25;19.27;;;17.67;;
2053;SDS011;1032;52.542;13.440;2022-08-19T08:00:52;20.60;;;18.90;;
2053;SDS011;1032;52.542;13.440;2022-08-19T08:03:19;22.70;;;20.60;;
2053;SDS011;1032;52.542;13.440;2022-08-19T08:06:08;20.97;;;19.27;;
2053;SDS011;1032;52.542;13.440;2022-08-19T08:08:52;22.57;;;20.77;;
2053;SDS011;1032;52.542;13.440;2022-08-19T08:11:41;21.40;;;19.80;;
2053;SDS011;1032;52.542;13.440;2022-08-19T08:14:14;21.33;;;19.53;;
2053;SDS011;1032;52.542;13.440;2022-08-19T08:16:42;22.30;;;20.60;;
2053;SDS011;1032;52.542;13.440;2022-08-19T08:19:10;20.80;;;19.00;;
2053;SDS011;1032;52.542;13.440;2022-08-19T08:21:41;21.27;;;19.33;;
2053;SDS011;1032;52.542;13.440;2022-08-19T08:24:08;20.57;;;19.00;;
2053;SDS011;1032;52.542;13.440;2022-08-19T08:26:35;22.60;;;20.80;;
2053;SDS011;1032;52.542;13.440;2022-08-19T08:29:05;21.23;;;19.53;;
2053;SDS011;1032;52.542;13.440;2022-08-19T08:31:35;21.83;;;19.93;;
2053;SDS011;1032;52.542;13.440;2022-08-19T08:34:02;22.10;;;20.43;;
2053;SDS011;1032;52.542;13.440;2022-08-19T08:36:29;22.00;;;20.07;;
2053;SDS011;1032;52.542;13.440;2022-08-19T08:38:59;21.60;;;19.90;;
2053;SDS011;1032;52.542;13.440;2022-08-19T08:41:28;22.23;;;20.50;;
2053;SDS011;1032;52.542;13.440;2022-08-19T08:44:01;21.43;;;19.73;;
2053;SDS011;1032;52.542;13.440;2022-08-19T08:46:30;22.00;;;20.10;;
2053;SDS011;1032;52.542;13.440;2022-08-19T08:49:05;21.87;;;20.17;;
2053;SDS011;1032;52.542;13.440;2022-08-19T08:51:38;22.60;;;20.80;;
2053;SDS011;1032;52.542;13.440;2022-08-19T08:54:12;22.57;;;20.87;;
2053;SDS011;1032;52.542;13.440;2022-08-19T08:56:41;27.50;;;25.20;;
2053;SDS011;1032;52.542;13.440;2022-08-19T08:59:12;22.73;;;20.97;;
2053;SDS011;1032;52.542;13.440;2022-08-19T09:01:44;21.63;;;19.87;;
2053;SDS011;1032;52.542;13.440;2022-08-19T09:04:11;24.90;;;22.53;;
2053;SDS011;1032;52.542;13.440;2022-08-19T09:06:40;23.10;;;21.40;;
2053;SDS011;1032;52.542;13.440;2022-08-19T09:09:18;22.43;;;20.63;;
2053;SDS011;1032;52.542;13.440;2022-08-19T09:11:56;23.07;;;21.17;;
2053;SDS011;1032;52.542;13.440;2022-08-19T09:14:32;22.93;;;21.00;;
2053;SDS011;1032;52.542;13.440;2022-08-19T09:17:06;23.00;;;21.00;;
2053;SDS011;1032;52.542;13.440;2022-08-19T09:19:34;21.00;;;19.40;;
2053;SDS011;1032;52.542;13.440;2022-08-19T09:22:01;21.37;;;19.77;;
2053;SDS011;1032;52.542;13.440;2022-08-19T09:24:29;20.50;;;18.97;;
2053;SDS011;1032;52.542;13.440;2022-08-19T09:26:56;20.77;;;19.17;;
2053;SDS011;1032;52.542;13.440;2022-08-19T09:29:22;21.60;;;19.70;;
2053;SDS011;1032;52.542;13.440;2022-08-19T09:31:49;21.90;;;20.27;;
2053;SDS011;1032;52.542;13.440;2022-08-19T09:34:16;21.23;;;19.53;;
2053;SDS011;1032;52.542;13.440;2022-08-19T09:36:44;20.97;;;19.00;;
2053;SDS011;1032;52.542;13.440;2022-08-19T09:39:11;21.03;;;19.13;;
2053;SDS011;1032;52.542;13.440;2022-08-19T09:41:39;19.87;;;18.27;;
2053;SDS011;1032;52.542;13.440;2022-08-19T09:44:05;18.83;;;17.53;;
2053;SDS011;1032;52.542;13.440;2022-08-19T09:46:32;18.73;;;17.33;;
2053;SDS011;1032;52.542;13.440;2022-08-19T09:48:59;23.47;;;21.37;;
2053;SDS011;1032;52.542;13.440;2022-08-19T09:51:26;17.30;;;16.00;;
2053;SDS011;1032;52.542;13.440;2022-08-19T09:53:54;20.10;;;18.40;;
2053;SDS011;1032;52.542;13.440;2022-08-19T09:56:25;19.70;;;18.07;;
2053;SDS011;1032;52.542;13.440;2022-08-19T09:58:53;18.80;;;17.03;;
2053;SDS011;1032;52.542;13.440;2022-08-19T10:01:20;18.43;;;16.83;;
2053;SDS011;1032;52.542;13.440;2022-08-19T10:03:49;22.07;;;20.27;;
2053;SDS011;1032;52.542;13.440;2022-08-19T10:06:18;18.13;;;16.83;;
2053;SDS011;1032;52.542;13.440;2022-08-19T10:08:45;18.23;;;16.73;;
2053;SDS011;1032;52.542;13.440;2022-08-19T10:11:12;19.20;;;17.80;;
2053;SDS011;1032;52.542;13.440;2022-08-19T10:13:41;18.57;;;16.90;;
2053;SDS011;1032;52.542;13.440;2022-08-19T10:16:10;18.13;;;16.83;;
2053;SDS011;1032;52.542;13.440;2022-08-19T10:18:38;18.60;;;17.07;;
2053;SDS011;1032;52.542;13.440;2022-08-19T10:21:08;19.53;;;17.93;;
2053;SDS011;1032;52.542;13.440;2022-08-19T10:23:36;18.03;;;16.60;;
2053;SDS011;1032;52.542;13.440;2022-08-19T10:26:05;18.87;;;17.27;;
2053;SDS011;1032;52.542;13.440;2022-08-19T10:28:33;20.70;;;18.40;;
2053;SDS011;1032;52.542;13.440;2022-08-19T10:31:05;19.37;;;17.77;;
2053;SDS011;1032;52.542;13.440;2022-08-19T10:33:34;20.13;;;18.00;;
2053;SDS011;1032;52.542;13.440;2022-08-19T10:36:03;17.20;;;15.70;;
2053;SDS011;1032;52.542;13.440;2022-08-19T10:38:34;18.40;;;16.80;;
2053;SDS011;1032;52.542;13.440;2022-08-19T10:41:07;18.23;;;16.63;;
2053;SDS011;1032;52.542;13.440;2022-08-19T10:43:36;16.70;;;15.30;;
2053;SDS011;1032;52.542;13.440;2022-08-19T10:46:04;18.37;;;16.87;;
2053;SDS011;1032;52.542;13.440;2022-08-19T10:48:32;18.07;;;16.37;;
2053;SDS011;1032;52.542;13.440;2022-08-19T10:51:00;17.17;;;15.73;;
2053;SDS011;1032;52.542;13.440;2022-08-19T10:53:44;17.20;;;15.67;;
2053;SDS011;1032;52.542;13.440;2022-08-19T10:56:11;17.60;;;16.10;;
2053;SDS011;1032;52.542;13.440;2022-08-19T10:58:55;16.60;;;15.20;;
2053;SDS011;1032;52.542;13.440;2022-08-19T11:01:22;17.23;;;15.73;;
2053;SDS011;1032;52.542;13.440;2022-08-19T11:03:49;16.70;;;14.97;;
2053;SDS011;1032;52.542;13.440;2022-08-19T11:06:17;17.80;;;16.30;;
2053;SDS011;1032;52.542;13.440;2022-08-19T11:08:45;17.33;;;15.83;;
2053;SDS011;1032;52.542;13.440;2022-08-19T11:11:12;16.63;;;15.10;;
2053;SDS011;1032;52.542;13.440;2022-08-19T11:13:39;17.03;;;15.63;;
2053;SDS011;1032;52.542;13.440;2022-08-19T11:16:08;16.60;;;15.20;;
2053;SDS011;1032;52.542;13.440;2022-08-19T11:18:39;17.33;;;15.83;;
2053;SDS011;1032;52.542;13.440;2022-08-19T11:21:08;16.90;;;15.50;;
2053;SDS011;1032;52.542;13.440;2022-08-19T11:23:39;15.43;;;14.23;;
2053;SDS011;1032;52.542;13.440;2022-08-19T11:26:06;15.97;;;14.47;;
2053;SDS011;1032;52.542;13.440;2022-08-19T11:28:32;14.43;;;13.33;;
2053;SDS011;1032;52.542;13.440;2022-08-19T11:30:59;16.73;;;14.90;;
2053;SDS011;1032;52.542;13.440;2022-08-19T11:33:28;16.83;;;15.47;;
2053;SDS011;1032;52.542;13.440;2022-08-19T11:35:56;17.03;;;15.60;;
2053;SDS011;1032;52.542;13.440;2022-08-19T11:38:24;16.10;;;14.80;;
2053;SDS011;1032;52.542;13.440;2022-08-19T11:40:55;16.43;;;15.10;;
2053;SDS011;1032;52.542;13.440;2022-08-19T11:43:22;16.77;;;15.40;;
2053;SDS011;1032;52.542;13.440;2022-08-19T11:45:49;15.93;;;14.70;;
2053;SDS011;1032;52.542;13.440;2022-08-19T11:48:16;15.60;;;14.10;;
2053;SDS011;1032;52.542;13.440;2022-08-19T11:50:47;16.43;;;14.83;;
2053;SDS011;1032;52.542;13.440;2022-08-19T11:53:14;14.90;;;13.60;;
2053;SDS011;1032;52.542;13.440;2022-08-19T11:55:41;16.10;;;14.70;;
2053;SDS011;1032;52.542;13.440;2022-08-19T11:58:11;15.30;;;14.00;;
2053;SDS011;1032;52.542;13.440;2022-08-19T12:00:38;15.40;;;14.10;;
2053;SDS011;1032;52.542;13.440;2022-08-19T12:03:04;13.20;;;12.10;;
2053;SDS011;1032;52.542;13.440;2022-08-19T12:05:31;14.10;;;13.00;;
2053;SDS011;1032;52.542;13.440;2022-08-19T12:07:58;13.83;;;12.53;;
2053;SDS011;1032;52.542;13.440;2022-08-19T12:10:24;14.20;;;12.90;;
2053;SDS011;1032;52.542;13.440;2022-08-19T12:12:51;15.10;;;13.70;;
2053;SDS011;1032;52.542;13.440;2022-08-19T12:15:19;14.37;;;13.03;;
2053;SDS011;1032;52.542;13.440;2022-08-19T12:17:46;14.07;;;12.77;;
2053;SDS011;1032;52.542;13.440;2022-08-19T12:20:12;12.77;;;11.73;;
2053;SDS011;1032;52.542;13.440;2022-08-19T12:22:42;14.07;;;12.80;;
2053;SDS011;1032;52.542;13.440;2022-08-19T12:25:09;12.30;;;11.20;;
2053;SDS011;1032;52.542;13.440;2022-08-19T12:27:37;12.60;;;11.40;;
2053;SDS011;1032;52.542;13.440;2022-08-19T12:30:04;11.90;;;11.10;;
2053;SDS011;1032;52.542;13.440;2022-08-19T12:32:33;12.07;;;11.00;;
2053;SDS011;1032;52.542;13.440;2022-08-19T12:35:00;12.27;;;11.17;;
2053;SDS011;1032;52.542;13.440;2022-08-19T12:37:27;11.70;;;10.80;;
2053;SDS011;1032;52.542;13.440;2022-08-19T12:39:56;12.13;;;11.10;;
2053;SDS011;1032;52.542;13.440;2022-08-19T12:42:23;11.07;;;10.07;;
2053;SDS011;1032;52.542;13.440;2022-08-19T12:44:50;11.27;;;10.40;;
2053;SDS011;1032;52.542;13.440;2022-08-19T12:47:17;11.60;;;10.63;;
2053;SDS011;1032;52.542;13.440;2022-08-19T12:49:46;10.20;;;9.30;;
2053;SDS011;1032;52.542;13.440;2022-08-19T12:52:14;14.60;;;10.70;;
2053;SDS011;1032;52.542;13.440;2022-08-19T12:54:41;11.87;;;10.87;;
2053;SDS011;1032;52.542;13.440;2022-08-19T12:57:09;12.03;;;10.83;;
2053;SDS011;1032;52.542;13.440;2022-08-19T12:59:37;12.93;;;10.73;;
2053;SDS011;1032;52.542;13.440;2022-08-19T13:02:04;13.17;;;11.90;;
2053;SDS011;1032;52.542;13.440;2022-08-19T13:04:32;12.30;;;11.30;;
2053;SDS011;1032;52.542;13.440;2022-08-19T13:07:02;12.80;;;11.80;;
2053;SDS011;1032;52.542;13.440;2022-08-19T13:09:28;12.90;;;11.93;;
2053;SDS011;1032;52.542;13.440;2022-08-19T13:11:55;12.20;;;11.17;;
2053;SDS011;1032;52.542;13.440;2022-08-19T13:14:22;13.73;;;12.60;;
2053;SDS011;1032;52.542;13.440;2022-08-19T13:16:48;13.97;;;12.77;;
2053;SDS011;1032;52.542;13.440;2022-08-19T13:19:15;13.87;;;12.63;;
2053;SDS011;1032;52.542;13.440;2022-08-19T13:21:45;13.60;;;12.60;;
2053;SDS011;1032;52.542;13.440;2022-08-19T13:24:17;13.67;;;12.57;;
2053;SDS011;1032;52.542;13.440;2022-08-19T13:26:44;14.87;;;13.20;;
2053;SDS011;1032;52.542;13.440;2022-08-19T13:29:11;13.40;;;12.40;;
2053;SDS011;1032;52.542;13.440;2022-08-19T13:31:55;14.80;;;13.50;;
2053;SDS011;1032;52.542;13.440;2022-08-19T13:34:39;13.87;;;12.77;;
2053;SDS011;1032;52.542;13.440;2022-08-19T13:37:06;13.00;;;12.00;;
2053;SDS011;1032;52.542;13.440;2022-08-19T13:39:34;13.33;;;12.23;;
2053;SDS011;1032;52.542;13.440;2022-08-19T13:42:01;13.73;;;12.63;;
2053;SDS011;1032;52.542;13.440;2022-08-19T13:44:29;13.80;;;12.60;;
2053;SDS011;1032;52.542;13.440;2022-08-19T13:46:59;13.60;;;12.50;;
2053;SDS011;1032;52.542;13.440;2022-08-19T13:49:30;13.70;;;12.70;;
2053;SDS011;1032;52.542;13.440;2022-08-19T13:51:57;13.37;;;12.27;;
2053;SDS011;1032;52.542;13.440;2022-08-19T13:54:24;13.70;;;12.50;;
2053;SDS011;1032;52.542;13.440;2022-08-19T13:56:53;14.13;;;12.93;;
2053;SDS011;1032;52.542;13.440;2022-08-19T13:59:20;14.10;;;12.73;;
2053;SDS011;1032;52.542;13.440;2022-08-19T14:01:46;12.50;;;11.43;;
2053;SDS011;1032;52.542;13.440;2022-08-19T14:04:13;14.33;;;13.23;;
2053;SDS011;1032;52.542;13.440;2022-08-19T14:06:40;13.23;;;12.03;;
2053;SDS011;1032;52.542;13.440;2022-08-19T14:09:06;14.00;;;12.90;;
2053;SDS011;1032;52.542;13.440;2022-08-19T14:11:33;13.87;;;12.80;;
2053;SDS011;1032;52.542;13.440;2022-08-19T14:14:01;13.40;;;12.27;;
2053;SDS011;1032;52.542;13.440;2022-08-19T14:16:27;15.53;;;14.13;;
2053;SDS011;1032;52.542;13.440;2022-08-19T14:18:55;11.97;;;11.03;;
2053;SDS011;1032;52.542;13.440;2022-08-19T14:21:22;13.27;;;12.17;;
2053;SDS011;1032;52.542;13.440;2022-08-19T14:23:50;12.63;;;11.63;;
2053;SDS011;1032;52.542;13.440;2022-08-19T14:26:18;13.47;;;12.07;;
2053;SDS011;1032;52.542;13.440;2022-08-19T14:28:46;13.73;;;12.63;;
2053;SDS011;1032;52.542;13.440;2022-08-19T14:31:16;14.80;;;13.70;;
2053;SDS011;1032;52.542;13.440;2022-08-19T14:33:45;12.47;;;11.43;;
2053;SDS011;1032;52.542;13.440;2022-08-19T14:36:12;15.23;;;14.03;;
2053;SDS011;1032;52.542;13.440;2022-08-19T14:38:39;14.17;;;12.83;;
2053;SDS011;1032;52.542;13.440;2022-08-19T14:41:07;12.97;;;11.97;;
2053;SDS011;1032;52.542;13.440;2022-08-19T14:43:34;12.60;;;11.50;;
2053;SDS011;1032;52.542;13.440;2022-08-19T14:46:01;13.20;;;11.90;;
2053;SDS011;1032;52.542;13.440;2022-08-19T14:48:29;12.33;;;11.20;;